Time;durP1;ratioP1;P1;durP2;ratioP2;P2;SDS_P1;SDS_P2;PMS_P1;PMS_P2;Temp;Humidity;BMP_temperature;BMP_pressure;BME280_temperature;BME280_humidity;BME280_pressure;Samples;Min_cycle;Max_cycle;Signal;HPM_P1;HPM_P2
2022/04/28 00:00:42;;;;;;;14.80;13.07;;;6.90;99.90;;;;;;5089656;28;20442;-67
2022/04/28 00:03:11;;;;;;;13.90;12.50;;;6.90;99.90;;;;;;5089740;28;20477;-67
2022/04/28 00:05:39;;;;;;;14.10;12.70;;;6.80;99.90;;;;;;5089349;28;20464;-66
2022/04/28 00:08:07;;;;;;;15.80;13.80;;;6.80;99.90;;;;;;5089766;28;20444;-67
2022/04/28 00:10:35;;;;;;;17.43;13.40;;;6.80;99.90;;;;;;5089639;28;20441;-67
2022/04/28 00:13:02;;;;;;;15.00;13.50;;;6.70;99.90;;;;;;5089379;28;20453;-67
2022/04/28 00:15:29;;;;;;;14.67;13.20;;;6.60;99.90;;;;;;5089487;28;20535;-67
2022/04/28 00:17:56;;;;;;;13.73;12.40;;;6.60;99.90;;;;;;5093511;28;20454;-67
2022/04/28 00:20:25;;;;;;;17.43;15.20;;;6.50;99.90;;;;;;5093538;28;20446;-66
2022/04/28 00:22:52;;;;;;;15.03;13.33;;;6.50;99.90;;;;;;5093241;28;20499;-67
2022/04/28 00:25:20;;;;;;;14.67;13.27;;;6.40;99.90;;;;;;5092850;28;20560;-67
2022/04/28 00:27:47;;;;;;;16.63;14.83;;;6.40;99.90;;;;;;5093432;28;20827;-67
2022/04/28 00:30:14;;;;;;;17.47;15.73;;;6.40;99.90;;;;;;5093583;28;20450;-67
2022/04/28 00:32:41;;;;;;;15.03;13.10;;;6.30;99.90;;;;;;5093227;28;21228;-67
2022/04/28 00:35:09;;;;;;;19.10;13.10;;;6.30;99.90;;;;;;5092854;28;20457;-67
2022/04/28 00:37:37;;;;;;;15.20;13.60;;;6.20;99.90;;;;;;5093184;28;20445;-67
2022/04/28 00:40:05;;;;;;;15.03;13.20;;;6.10;99.90;;;;;;5093308;28;20453;-68
2022/04/28 00:42:32;;;;;;;15.83;13.43;;;6.10;99.90;;;;;;5093261;28;20493;-68
2022/04/28 00:44:59;;;;;;;15.40;13.70;;;6.00;99.90;;;;;;5092681;28;20473;-67
2022/04/28 00:50:38;;;;;;;15.87;13.53;;;6.00;99.90;;;;;;5093216;28;20549;-67
2022/04/28 00:53:00;;;;;;;15.70;13.97;;;6.00;99.90;;;;;;5092942;28;20942;-67
2022/04/28 00:55:29;;;;;;;17.00;15.23;;;5.90;99.90;;;;;;5092394;28;20470;-66
2022/04/28 00:57:56;;;;;;;16.80;14.23;;;6.00;99.90;;;;;;5092941;28;20534;-67
2022/04/28 01:00:23;;;;;;;16.50;14.83;;;5.90;99.90;;;;;;5092651;28;20541;-67
2022/04/28 01:02:50;;;;;;;16.53;14.90;;;5.90;99.90;;;;;;5092748;28;20577;-67
2022/04/28 01:05:17;;;;;;;18.50;15.23;;;5.90;99.90;;;;;;5106125;28;20472;-67
2022/04/28 01:07:44;;;;;;;17.97;16.17;;;5.80;99.90;;;;;;5111996;28;20441;-67
2022/04/28 01:10:12;;;;;;;18.10;16.20;;;5.80;99.90;;;;;;5112127;28;20442;-67
2022/04/28 01:12:39;;;;;;;18.77;16.23;;;5.80;99.90;;;;;;5113248;28;20442;-67
2022/04/28 01:15:06;;;;;;;17.03;15.17;;;5.80;99.90;;;;;;5112592;28;20475;-67
2022/04/28 01:17:33;;;;;;;16.20;14.50;;;5.80;99.90;;;;;;5113230;28;20477;-66
2022/04/28 01:20:00;;;;;;;19.77;15.77;;;5.80;99.90;;;;;;5113117;28;20510;-67
2022/04/28 01:22:28;;;;;;;17.43;14.63;;;5.70;99.90;;;;;;5112569;28;20572;-67
2022/04/28 01:24:55;;;;;;;18.23;16.03;;;5.80;99.90;;;;;;5112464;28;20508;-67
2022/04/28 01:27:24;;;;;;;18.20;16.20;;;5.80;99.90;;;;;;5111778;28;20445;-68
2022/04/28 01:29:51;;;;;;;18.20;15.40;;;5.70;99.90;;;;;;5112555;28;20525;-67
2022/04/28 01:32:17;;;;;;;19.10;15.30;;;5.70;99.90;;;;;;5112541;28;20447;-67
2022/04/28 01:34:44;;;;;;;17.23;15.30;;;5.60;99.90;;;;;;5112158;28;20471;-67
2022/04/28 01:37:11;;;;;;;18.80;16.20;;;5.50;99.90;;;;;;5112397;28;20455;-66
2022/04/28 01:39:39;;;;;;;21.00;15.10;;;5.50;99.90;;;;;;5112406;28;20441;-67
2022/04/28 01:42:06;;;;;;;17.10;15.30;;;5.50;99.90;;;;;;5112081;28;20532;-67
2022/04/28 01:44:33;;;;;;;20.00;16.23;;;5.50;99.90;;;;;;5112183;27;20850;-67
2022/04/28 01:47:00;;;;;;;19.13;15.07;;;5.40;99.90;;;;;;5112357;28;20441;-67
2022/04/28 01:49:27;;;;;;;15.47;13.80;;;5.40;99.90;;;;;;5112304;28;20460;-67
2022/04/28 01:55:00;;;;;;;17.10;15.30;;;5.30;99.90;;;;;;5068280;28;20455;-67
2022/04/28 01:57:27;;;;;;;18.83;15.30;;;5.30;99.90;;;;;;5068862;28;20466;-67
2022/04/28 01:59:56;;;;;;;20.23;18.00;;;5.30;99.90;;;;;;5089452;28;20437;-67
2022/04/28 02:02:23;;;;;;;19.23;15.80;;;5.30;99.90;;;;;;5112052;28;21020;-67
2022/04/28 02:04:49;;;;;;;19.57;17.10;;;5.20;99.90;;;;;;5112040;28;20490;-67
2022/04/28 02:07:16;;;;;;;18.40;15.97;;;5.30;99.90;;;;;;5111949;28;20445;-67
2022/04/28 02:09:45;;;;;;;18.40;16.50;;;5.20;99.90;;;;;;5111879;28;20441;-67
2022/04/28 02:12:14;;;;;;;17.83;14.63;;;5.30;99.90;;;;;;5112025;28;20580;-67
2022/04/28 02:14:41;;;;;;;18.50;16.53;;;5.30;99.90;;;;;;5111137;28;20549;-67
2022/04/28 02:17:08;;;;;;;20.20;15.23;;;5.20;99.90;;;;;;5111691;28;20448;-67
2022/04/28 02:19:35;;;;;;;21.33;16.50;;;5.20;99.90;;;;;;5111535;28;20528;-67
2022/04/28 02:22:02;;;;;;;18.47;16.53;;;5.10;99.90;;;;;;5111526;28;20453;-68
2022/04/28 02:24:29;;;;;;;18.07;16.13;;;5.10;99.90;;;;;;5110932;28;20926;-67
2022/04/28 02:26:56;;;;;;;19.50;17.17;;;5.10;99.90;;;;;;5111748;28;20452;-67
2022/04/28 02:29:24;;;;;;;21.10;16.80;;;5.10;99.90;;;;;;5111532;28;20445;-68
2022/04/28 02:31:51;;;;;;;19.60;16.53;;;5.10;99.90;;;;;;5111474;28;21070;-67
2022/04/28 02:34:18;;;;;;;21.50;16.43;;;5.10;99.90;;;;;;5111149;28;20462;-66
2022/04/28 02:36:45;;;;;;;18.80;16.40;;;5.10;99.90;;;;;;5111506;28;20532;-67
2022/04/28 02:39:13;;;;;;;19.70;17.60;;;5.00;99.90;;;;;;5111379;28;20874;-67
2022/04/28 02:41:39;;;;;;;20.13;15.63;;;4.90;99.90;;;;;;5111230;28;20453;-67
2022/04/28 02:44:06;;;;;;;21.13;18.03;;;4.90;99.90;;;;;;5111111;28;20522;-67
2022/04/28 02:46:35;;;;;;;17.63;15.60;;;4.90;99.90;;;;;;5111066;28;20445;-67
2022/04/28 02:49:02;;;;;;;19.10;16.63;;;4.90;99.90;;;;;;5111134;28;20449;-67
2022/04/28 02:51:29;;;;;;;22.63;16.53;;;4.90;99.90;;;;;;5111296;28;20437;-69
2022/04/28 02:53:55;;;;;;;24.53;17.60;;;5.00;99.90;;;;;;5110943;28;20520;-66
2022/04/28 02:56:22;;;;;;;18.03;15.33;;;5.00;99.90;;;;;;5111106;28;20449;-68
2022/04/28 02:58:50;;;;;;;20.07;16.10;;;5.00;99.90;;;;;;5111082;28;20449;-67
2022/04/28 03:01:17;;;;;;;19.17;17.17;;;5.00;99.90;;;;;;5110942;28;20907;-68
2022/04/28 03:03:45;;;;;;;18.83;16.83;;;4.90;99.90;;;;;;5110985;28;20491;-69
2022/04/28 03:11:42;;;;;;;20.83;17.57;;;4.80;99.90;;;;;;5110782;28;20420;-67
2022/04/28 03:14:09;;;;;;;19.57;16.83;;;4.80;99.90;;;;;;5110062;28;21043;-68
2022/04/28 03:16:36;;;;;;;17.60;15.70;;;4.70;99.90;;;;;;5110811;28;20878;-68
2022/04/28 03:19:04;;;;;;;19.33;15.60;;;4.60;99.90;;;;;;5110522;28;20871;-68
2022/04/28 03:21:31;;;;;;;18.37;16.33;;;4.60;99.90;;;;;;5110504;28;20453;-69
2022/04/28 03:23:58;;;;;;;19.90;17.23;;;4.60;99.90;;;;;;5110115;28;20561;-67
2022/04/28 03:26:25;;;;;;;19.90;17.07;;;4.70;99.90;;;;;;5110073;28;20499;-68
2022/04/28 03:28:52;;;;;;;19.67;16.80;;;4.70;99.90;;;;;;5110100;28;20971;-68
2022/04/28 03:31:19;;;;;;;19.87;17.17;;;4.60;99.90;;;;;;5110388;28;20544;-68
2022/04/28 03:33:46;;;;;;;21.13;17.57;;;4.60;99.90;;;;;;5110476;28;20876;-68
2022/04/28 03:38:55;;;;;;;25.33;18.30;;;4.60;99.90;;;;;;5100955;28;20506;-68
2022/04/28 03:41:22;;;;;;;22.27;19.87;;;4.50;99.90;;;;;;5110297;28;20444;-68
2022/04/28 03:43:49;;;;;;;22.53;18.27;;;4.40;99.90;;;;;;5110112;28;20504;-67
2022/04/28 03:46:16;;;;;;;29.10;17.17;;;4.50;99.90;;;;;;5109672;28;20444;-68
2022/04/28 03:48:43;;;;;;;20.57;18.40;;;4.50;99.90;;;;;;5110125;28;20456;-68
2022/04/28 03:51:09;;;;;;;20.67;16.77;;;4.40;99.90;;;;;;5109361;28;20450;-68
2022/04/28 03:53:38;;;;;;;18.80;16.70;;;4.50;99.90;;;;;;5110044;28;20457;-68
2022/04/28 03:56:06;;;;;;;19.23;17.00;;;4.50;99.90;;;;;;5109864;28;20465;-68
2022/04/28 03:58:33;;;;;;;20.33;18.13;;;4.50;99.90;;;;;;5110272;28;20469;-69
2022/04/28 04:01:00;;;;;;;17.73;16.03;;;4.50;99.90;;;;;;5109908;28;20449;-68
2022/04/28 04:03:27;;;;;;;19.27;16.53;;;4.60;99.90;;;;;;5110003;28;20489;-69
2022/04/28 04:05:54;;;;;;;24.50;19.37;;;4.40;99.90;;;;;;5109404;28;20852;-69
2022/04/28 04:08:21;;;;;;;22.67;18.87;;;4.40;99.90;;;;;;5109918;28;20441;-68
2022/04/28 04:10:49;;;;;;;20.73;18.37;;;4.40;99.90;;;;;;5110104;28;20533;-68
2022/04/28 04:13:16;;;;;;;22.53;19.10;;;4.40;99.90;;;;;;5109787;28;20467;-68
2022/04/28 04:15:43;;;;;;;21.90;17.30;;;4.40;99.90;;;;;;5109530;28;20522;-68
2022/04/28 04:18:10;;;;;;;20.40;17.43;;;4.40;99.90;;;;;;5109770;28;20449;-69
2022/04/28 04:20:37;;;;;;;22.60;18.50;;;4.40;99.90;;;;;;5109780;28;20441;-68
2022/04/28 04:23:05;;;;;;;21.97;18.80;;;4.50;99.90;;;;;;5109754;28;20491;-69
2022/04/28 04:25:32;;;;;;;23.50;18.90;;;4.40;99.90;;;;;;5109457;28;20480;-69
2022/04/28 04:28:00;;;;;;;20.63;17.53;;;4.50;99.90;;;;;;5109518;28;20441;-67
2022/04/28 04:33:13;;;;;;;20.13;17.00;;;4.60;99.90;;;;;;5091437;28;20418;-68
2022/04/28 04:35:40;;;;;;;18.53;16.50;;;4.60;99.90;;;;;;5109702;28;20465;-68
2022/04/28 04:38:07;;;;;;;20.57;17.40;;;4.50;99.90;;;;;;5109876;28;20441;-69
2022/04/28 04:40:34;;;;;;;21.10;18.43;;;4.50;99.90;;;;;;5109912;28;20484;-68
2022/04/28 04:43:03;;;;;;;22.00;17.73;;;4.50;99.90;;;;;;5109898;28;20481;-69
2022/04/28 04:45:30;;;;;;;20.90;17.30;;;4.50;99.90;;;;;;5109362;28;20876;-68
2022/04/28 04:47:57;;;;;;;19.33;17.10;;;4.60;99.90;;;;;;5110723;28;21002;-68
2022/04/28 04:50:24;;;;;;;19.57;16.10;;;4.60;99.90;;;;;;5110309;28;20449;-68
2022/04/28 04:52:50;;;;;;;20.97;18.00;;;4.70;99.90;;;;;;5109755;28;20450;-69
2022/04/28 04:55:17;;;;;;;17.87;15.90;;;4.70;99.90;;;;;;5109350;28;20533;-68
2022/04/28 04:57:44;;;;;;;18.80;16.37;;;4.70;99.90;;;;;;5109773;28;20460;-68
2022/04/28 05:00:13;;;;;;;17.47;15.67;;;4.80;99.90;;;;;;5109526;28;20449;-69
2022/04/28 05:02:40;;;;;;;19.73;16.77;;;4.80;99.90;;;;;;5112132;27;20456;-69
2022/04/28 05:05:08;;;;;;;20.93;17.67;;;4.90;99.90;;;;;;5114891;27;20837;-70
2022/04/28 05:07:34;;;;;;;19.60;17.30;;;4.90;99.90;;;;;;5114160;27;20508;-68
2022/04/28 05:10:01;;;;;;;20.13;15.93;;;4.90;99.90;;;;;;5114197;27;20813;-68
2022/04/28 05:12:28;;;;;;;18.03;16.10;;;5.10;99.90;;;;;;5113198;27;20445;-68
2022/04/28 05:14:55;;;;;;;21.30;16.27;;;5.10;99.90;;;;;;5110427;27;20813;-72
2022/04/28 05:17:23;;;;;;;21.00;17.00;;;5.20;99.90;;;;;;5111043;28;20449;-69
2022/04/28 05:19:50;;;;;;;18.60;15.83;;;5.30;99.90;;;;;;5111038;28;20437;-68
2022/04/28 05:22:17;;;;;;;19.50;15.63;;;5.30;99.90;;;;;;5110875;28;20445;-68
2022/04/28 05:24:44;;;;;;;20.40;14.70;;;5.40;99.90;;;;;;5109619;28;20480;-67
2022/04/28 05:27:11;;;;;;;17.30;14.47;;;5.40;99.90;;;;;;5109248;28;20459;-67
2022/04/28 05:29:37;;;;;;;18.07;16.17;;;5.50;99.90;;;;;;5112330;28;20528;-68
2022/04/28 05:32:05;;;;;;;21.20;17.23;;;5.50;99.90;;;;;;5112533;28;20951;-68
2022/04/28 05:34:33;;;;;;;17.80;15.83;;;5.60;99.90;;;;;;5112286;28;20501;-68
2022/04/28 05:37:00;;;;;;;21.30;16.13;;;5.60;99.90;;;;;;5112534;28;20541;-68
2022/04/28 05:39:28;;;;;;;24.50;16.30;;;5.60;99.90;;;;;;5107184;27;20564;-67
2022/04/28 05:41:55;;;;;;;20.40;16.70;;;5.70;99.90;;;;;;5110174;28;20456;-67
2022/04/28 05:47:08;;;;;;;23.30;17.80;;;5.90;99.90;;;;;;5090998;28;20430;-68
2022/04/28 05:49:38;;;;;;;19.50;16.03;;;6.00;99.90;;;;;;5090998;28;20438;-67
2022/04/28 05:52:07;;;;;;;16.73;14.93;;;6.10;99.90;;;;;;5090904;28;20459;-67
2022/04/28 05:54:35;;;;;;;21.73;15.67;;;6.20;99.90;;;;;;5090498;28;20474;-67
2022/04/28 05:57:02;;;;;;;20.90;16.30;;;6.40;99.90;;;;;;5090794;28;20452;-67
2022/04/28 05:59:29;;;;;;;18.63;16.37;;;6.40;99.90;;;;;;5090881;28;20450;-68
2022/04/28 06:01:56;;;;;;;18.30;16.10;;;6.50;99.90;;;;;;5090669;28;20974;-67
2022/04/28 06:04:23;;;;;;;18.67;16.40;;;6.40;99.90;;;;;;5090350;28;20488;-67
2022/04/28 06:06:52;;;;;;;21.00;16.73;;;6.50;99.90;;;;;;5090252;28;20442;-67
2022/04/28 06:09:19;;;;;;;18.90;16.60;;;6.70;99.90;;;;;;5090520;28;20936;-67
2022/04/28 06:11:45;;;;;;;17.00;15.30;;;6.70;99.90;;;;;;5090718;28;20448;-67
2022/04/28 06:14:12;;;;;;;19.00;16.70;;;6.90;99.90;;;;;;5089856;28;20549;-67
2022/04/28 06:16:39;;;;;;;19.80;17.70;;;6.90;99.90;;;;;;5090298;28;20457;-67
2022/04/28 06:19:07;;;;;;;20.00;16.80;;;7.00;99.90;;;;;;5090418;28;20468;-67
2022/04/28 06:21:33;;;;;;;21.50;18.43;;;7.10;99.90;;;;;;5090215;28;20969;-67
2022/04/28 06:24:02;;;;;;;19.73;17.77;;;7.20;99.90;;;;;;5090307;28;20490;-67
2022/04/28 06:26:29;;;;;;;21.97;16.97;;;7.20;99.90;;;;;;5090011;28;20498;-66
2022/04/28 06:28:55;;;;;;;18.63;16.60;;;7.40;99.90;;;;;;5090420;28;20820;-67
2022/04/28 06:31:22;;;;;;;18.90;15.87;;;7.50;99.90;;;;;;5090259;28;20446;-67
2022/04/28 06:33:49;;;;;;;17.53;15.63;;;7.60;99.90;;;;;;5089935;28;20533;-67
2022/04/28 06:36:16;;;;;;;18.00;16.10;;;7.70;99.90;;;;;;5090002;28;20456;-67
2022/04/28 06:38:43;;;;;;;17.63;15.40;;;7.80;99.90;;;;;;5090013;28;20882;-67
2022/04/28 06:41:11;;;;;;;18.33;15.80;;;7.90;99.90;;;;;;5090107;28;20458;-68
2022/04/28 06:43:38;;;;;;;18.07;15.57;;;8.00;99.90;;;;;;5089918;28;20477;-67
2022/04/28 06:46:13;;;;;;;20.53;16.43;;;8.10;99.90;;;;;;5089661;28;20493;-66
2022/04/28 06:48:41;;;;;;;15.60;13.70;;;8.20;99.90;;;;;;5089944;28;20446;-66
2022/04/28 06:51:08;;;;;;;16.47;14.77;;;8.30;99.90;;;;;;5092132;28;20454;-67
2022/04/28 06:53:35;;;;;;;15.40;13.80;;;8.50;99.90;;;;;;5090243;28;20551;-67
2022/04/28 06:56:01;;;;;;;17.77;15.97;;;8.60;99.90;;;;;;5089811;28;20466;-67
2022/04/28 06:58:30;;;;;;;15.17;13.67;;;8.70;99.90;;;;;;5089862;28;20760;-66
2022/04/28 07:00:57;;;;;;;15.57;13.40;;;8.90;99.90;;;;;;5089898;28;20450;-67
2022/04/28 07:03:24;;;;;;;15.60;13.40;;;9.00;99.90;;;;;;5089849;28;20497;-67
2022/04/28 07:05:53;;;;;;;19.67;16.27;;;9.10;99.90;;;;;;5089444;28;20470;-68
2022/04/28 07:08:20;;;;;;;15.90;13.53;;;9.20;99.90;;;;;;5089792;28;20511;-67
2022/04/28 07:10:46;;;;;;;15.77;14.17;;;9.40;99.90;;;;;;5089946;28;20472;-67
2022/04/28 07:13:13;;;;;;;14.10;12.43;;;9.60;99.90;;;;;;5089749;28;20461;-67
2022/04/28 07:15:42;;;;;;;14.87;13.27;;;9.70;99.90;;;;;;5088915;28;20468;-67
2022/04/28 07:18:09;;;;;;;14.50;13.00;;;9.80;99.90;;;;;;5089314;28;20453;-67
2022/04/28 07:20:37;;;;;;;15.30;12.67;;;10.00;99.90;;;;;;5089371;28;20447;-68
2022/04/28 07:23:03;;;;;;;14.83;12.90;;;10.10;99.90;;;;;;5089527;28;20532;-67
2022/04/28 07:25:31;;;;;;;14.77;12.80;;;10.20;99.90;;;;;;5088169;28;20577;-67
2022/04/28 07:27:59;;;;;;;13.73;12.20;;;10.40;99.90;;;;;;5089199;28;20454;-67
2022/04/28 07:30:26;;;;;;;12.73;11.30;;;10.50;99.90;;;;;;5089028;28;20450;-66
2022/04/28 07:32:54;;;;;;;14.70;13.10;;;10.70;99.90;;;;;;5089282;28;20457;-67
2022/04/28 07:35:24;;;;;;;12.83;11.33;;;10.90;99.90;;;;;;5088679;28;20467;-67
2022/04/28 07:37:52;;;;;;;12.80;11.33;;;11.10;99.90;;;;;;5089023;28;20466;-66
2022/04/28 07:40:19;;;;;;;13.73;12.33;;;11.20;99.90;;;;;;5089135;28;20446;-66
2022/04/28 07:42:46;;;;;;;12.13;10.83;;;11.40;99.90;;;;;;5088860;28;20438;-67
2022/04/28 07:45:13;;;;;;;12.10;10.87;;;11.50;99.90;;;;;;5088575;28;20547;-67
2022/04/28 07:47:40;;;;;;;12.60;11.30;;;11.60;99.90;;;;;;5088868;28;20454;-67
2022/04/28 07:50:10;;;;;;;11.87;10.67;;;11.70;99.90;;;;;;5088758;28;20951;-67
2022/04/28 07:52:37;;;;;;;13.40;11.00;;;11.90;99.90;;;;;;5089021;28;20482;-67
2022/04/28 07:55:05;;;;;;;11.60;10.50;;;11.90;99.90;;;;;;5088365;28;20474;-66
2022/04/28 07:57:32;;;;;;;10.53;9.47;;;12.00;99.90;;;;;;5089051;28;20543;-67
2022/04/28 07:59:59;;;;;;;12.60;11.30;;;12.10;99.90;;;;;;5088470;28;20481;-67
2022/04/28 08:02:26;;;;;;;12.68;11.38;;;12.20;99.90;;;;;;5087841;28;20960;-66
2022/04/28 08:04:53;;;;;;;11.23;10.20;;;12.40;99.90;;;;;;5088449;28;20244;-66
2022/04/28 08:07:22;;;;;;;11.80;10.60;;;12.50;99.90;;;;;;5088823;28;20450;-66
2022/04/28 08:09:48;;;;;;;11.93;10.73;;;12.70;99.90;;;;;;5088501;28;20831;-67
2022/04/28 08:12:15;;;;;;;11.27;10.17;;;12.80;99.90;;;;;;5088811;28;20943;-66
2022/04/28 08:14:42;;;;;;;13.10;10.60;;;12.90;99.90;;;;;;5088352;28;20470;-66
2022/04/28 08:17:09;;;;;;;12.77;10.70;;;13.00;99.90;;;;;;5088675;28;20477;-66
2022/04/28 08:19:36;;;;;;;11.33;10.17;;;13.20;99.90;;;;;;5088484;28;20555;-66
2022/04/28 08:22:03;;;;;;;12.80;9.87;;;13.30;99.90;;;;;;5088630;28;20477;-66
2022/04/28 08:24:31;;;;;;;15.67;9.67;;;13.50;99.90;;;;;;5087899;28;20514;-66
2022/04/28 08:26:58;;;;;;;10.70;9.67;;;13.60;99.90;;;;;;5088935;28;20935;-67
2022/04/28 08:29:25;;;;;;;10.63;9.60;;;13.80;99.90;;;;;;5088365;28;20825;-67
2022/04/28 08:31:52;;;;;;;10.80;9.80;;;14.00;99.90;;;;;;5088412;28;20450;-67
2022/04/28 08:34:19;;;;;;;11.30;9.83;;;14.00;99.90;;;;;;5088158;28;20468;-67
2022/04/28 08:36:47;;;;;;;10.63;9.53;;;14.20;99.90;;;;;;5088966;28;20448;-67
2022/04/28 08:39:14;;;;;;;10.97;9.90;;;14.30;99.90;;;;;;5092548;28;20449;-67
2022/04/28 08:41:45;;;;;;;10.77;9.77;;;14.40;99.90;;;;;;5092371;28;20453;-67
2022/04/28 08:44:17;;;;;;;9.60;8.60;;;14.60;99.90;;;;;;5091799;28;20496;-67
2022/04/28 08:46:53;;;;;;;9.50;8.60;;;14.80;99.90;;;;;;5092185;28;20461;-67
2022/04/28 08:49:22;;;;;;;12.50;9.70;;;15.00;99.90;;;;;;5091953;28;20520;-67
2022/04/28 08:51:51;;;;;;;9.90;8.90;;;15.20;99.90;;;;;;5092017;28;20518;-67
2022/04/28 08:54:18;;;;;;;9.63;8.53;;;15.30;99.90;;;;;;5092129;28;20545;-67
2022/04/28 08:56:46;;;;;;;9.43;8.43;;;15.60;99.90;;;;;;5092258;28;20983;-66
2022/04/28 08:59:14;;;;;;;8.97;8.17;;;15.70;99.90;;;;;;5092142;28;20462;-67
2022/04/28 09:01:41;;;;;;;10.63;7.90;;;15.70;99.90;;;;;;5092097;28;20951;-66
2022/04/28 09:04:11;;;;;;;9.43;8.03;;;15.90;99.90;;;;;;5091696;28;20454;-66
2022/04/28 09:06:40;;;;;;;9.27;8.27;;;16.00;99.90;;;;;;5091668;28;20450;-66
2022/04/28 09:09:09;;;;;;;9.63;7.70;;;16.10;99.90;;;;;;5091851;28;20458;-67
2022/04/28 09:11:39;;;;;;;8.07;7.27;;;16.30;99.90;;;;;;5091975;28;20450;-66
2022/04/28 09:14:12;;;;;;;10.53;7.13;;;16.30;99.90;;;;;;5091241;28;20478;-66
2022/04/28 09:16:42;;;;;;;8.03;7.33;;;16.50;99.90;;;;;;5091544;28;20477;-66
2022/04/28 09:19:10;;;;;;;8.73;7.17;;;16.50;99.90;;;;;;5091417;28;20442;-66
2022/04/28 09:21:37;;;;;;;7.20;6.40;;;16.60;99.90;;;;;;5091642;28;20446;-66
2022/04/28 09:24:05;;;;;;;7.13;6.43;;;16.60;99.90;;;;;;5090958;28;20819;-65
2022/04/28 09:26:33;;;;;;;7.20;6.50;;;16.90;99.90;;;;;;5091358;28;20552;-67
2022/04/28 09:29:02;;;;;;;6.70;6.00;;;17.10;99.90;;;;;;5091242;28;20826;-66
2022/04/28 09:31:34;;;;;;;6.40;5.63;;;17.30;99.90;;;;;;5091474;28;20454;-66
2022/04/28 09:34:06;;;;;;;7.47;6.13;;;17.60;99.90;;;;;;5091220;28;20442;-66
2022/04/28 09:36:33;;;;;;;5.77;4.27;;;18.10;96.90;;;;;;5091309;28;20457;-65
2022/04/28 09:39:00;;;;;;;6.10;4.10;;;18.70;90.40;;;;;;5091184;28;20446;-65
2022/04/28 09:44:12;;;;;;;4.40;3.77;;;20.30;93.20;;;;;;5090660;28;20488;-66
2022/04/28 09:46:45;;;;;;;6.30;3.60;;;21.30;87.50;;;;;;5091051;28;20434;-67
2022/04/28 09:49:14;;;;;;;4.47;3.53;;;20.90;70.80;;;;;;5090155;28;20500;-66
2022/04/28 09:51:42;;;;;;;5.63;3.40;;;20.70;78.70;;;;;;5090623;28;20879;-68
2022/04/28 09:54:11;;;;;;;3.87;3.47;;;20.80;83.30;;;;;;5090739;28;20450;-68
2022/04/28 09:56:38;;;;;;;7.83;4.30;;;21.10;83.90;;;;;;5090892;28;20449;-67
2022/04/28 09:59:09;;;;;;;7.63;3.80;;;21.50;82.90;;;;;;5090920;28;20472;-66
2022/04/28 10:01:37;;;;;;;4.23;3.33;;;21.70;71.60;;;;;;5090622;28;20450;-66
2022/04/28 10:04:06;;;;;;;4.90;3.53;;;22.00;74.50;;;;;;5090532;28;20456;-65
2022/04/28 10:06:35;;;;;;;4.53;3.83;;;22.10;65.30;;;;;;5090388;28;20493;-68
2022/04/28 10:09:08;;;;;;;4.60;3.57;;;22.20;68.90;;;;;;5090685;28;20516;-67
2022/04/28 10:11:37;;;;;;;3.70;3.40;;;22.60;69.60;;;;;;5090423;28;20500;-66
2022/04/28 10:14:04;;;;;;;5.17;3.83;;;22.90;69.90;;;;;;5090333;28;20557;-66
2022/04/28 10:16:32;;;;;;;4.03;3.43;;;23.10;67.50;;;;;;5090537;28;20442;-66
2022/04/28 10:19:03;;;;;;;3.10;2.70;;;23.40;62.30;;;;;;5090349;28;20515;-67
2022/04/28 10:21:37;;;;;;;4.47;3.27;;;23.00;65.00;;;;;;5090377;28;20446;-66
2022/04/28 10:32:54;;;;;;;4.30;3.33;;;23.40;63.20;;;;;;5090137;28;20425;-67
2022/04/28 10:35:35;;;;;;;4.50;3.47;;;23.00;59.60;;;;;;5089919;28;20458;-66
2022/04/28 10:38:11;;;;;;;6.03;3.87;;;22.30;68.00;;;;;;5090313;28;20871;-65
2022/04/28 10:40:39;;;;;;;3.80;3.10;;;22.30;67.00;;;;;;5089989;28;20484;-67
2022/04/28 10:43:19;;;;;;;6.60;3.70;;;22.50;64.60;;;;;;5090122;28;20448;-66
2022/04/28 10:45:49;;;;;;;4.83;3.47;;;22.50;62.20;;;;;;5089912;28;20902;-67
2022/04/28 10:48:30;;;;;;;4.70;3.83;;;22.60;63.70;;;;;;5090078;28;20940;-66
2022/04/28 10:51:12;;;;;;;4.33;3.50;;;23.00;60.70;;;;;;5089833;28;20446;-67
2022/04/28 10:54:06;;;;;;;5.10;3.50;;;22.70;62.80;;;;;;5089951;28;20444;-66
2022/04/28 10:57:00;;;;;;;3.67;3.27;;;22.70;64.50;;;;;;5089660;28;20438;-67
2022/04/28 10:59:35;;;;;;;3.57;3.00;;;23.00;62.70;;;;;;5089793;28;20450;-66
2022/04/28 11:02:51;;;;;;;3.73;3.30;;;23.20;58.30;;;;;;5090475;28;20458;-67
2022/04/28 11:05:42;;;;;;;4.67;3.33;;;23.10;59.80;;;;;;5089841;28;20533;-67
2022/04/28 11:08:26;;;;;;;3.87;3.10;;;23.30;65.70;;;;;;5070430;28;21171;-67
2022/04/28 11:11:18;;;;;;;4.33;3.63;;;23.40;58.30;;;;;;5090579;28;20884;-67
2022/04/28 11:13:50;;;;;;;4.37;3.80;;;23.70;58.10;;;;;;5070515;28;20536;-66
2022/04/28 11:16:18;;;;;;;3.37;3.00;;;23.80;62.20;;;;;;5090176;28;20914;-67
2022/04/28 11:18:46;;;;;;;3.97;3.57;;;24.30;60.70;;;;;;5090230;28;20450;-67
2022/04/28 11:21:14;;;;;;;5.57;3.37;;;24.40;59.50;;;;;;5101668;28;20441;-67
2022/04/28 11:23:44;;;;;;;3.70;3.10;;;24.60;60.60;;;;;;5110278;28;20499;-67
2022/04/28 11:26:11;;;;;;;4.10;3.23;;;24.80;59.60;;;;;;5110808;28;20508;-67
2022/04/28 11:28:41;;;;;;;4.40;3.07;;;24.90;54.10;;;;;;5110857;28;20448;-66
2022/04/28 11:31:12;;;;;;;4.03;3.00;;;24.90;59.30;;;;;;5090623;28;20446;-67
2022/04/28 11:33:43;;;;;;;4.07;3.00;;;24.90;57.50;;;;;;5090663;28;21119;-67
2022/04/28 11:36:31;;;;;;;4.83;3.77;;;25.30;58.30;;;;;;5090367;28;20466;-66
2022/04/28 11:39:01;;;;;;;3.40;3.00;;;25.60;56.50;;;;;;5083827;28;20454;-67
2022/04/28 11:41:34;;;;;;;3.10;2.80;;;25.40;55.10;;;;;;5090226;28;20470;-67
2022/04/28 11:44:07;;;;;;;5.47;3.50;;;25.50;54.60;;;;;;5090202;28;20449;-67
2022/04/28 11:46:46;;;;;;;3.60;3.00;;;25.40;55.60;;;;;;5090506;28;20555;-66
2022/04/28 11:49:13;;;;;;;3.23;2.93;;;26.20;53.50;;;;;;5091215;28;20484;-67
2022/04/28 11:51:40;;;;;;;4.80;3.17;;;27.10;52.40;;;;;;5084093;28;20947;-67
2022/04/28 11:54:20;;;;;;;3.97;3.37;;;27.50;52.40;;;;;;5087094;28;20454;-67
2022/04/28 11:56:47;;;;;;;4.03;3.23;;;27.50;51.60;;;;;;5090161;28;20426;-68
2022/04/28 11:59:16;;;;;;;3.07;2.67;;;27.20;50.60;;;;;;5087215;28;20439;-66
2022/04/28 12:01:44;;;;;;;4.43;2.93;;;27.30;51.20;;;;;;5089095;28;20507;-66
2022/04/28 12:04:12;;;;;;;3.47;3.10;;;27.50;54.70;;;;;;5095681;28;20443;-66
2022/04/28 12:06:42;;;;;;;3.40;2.73;;;27.80;51.70;;;;;;5087775;28;20512;-67
2022/04/28 12:14:36;;;;;;;3.20;2.70;;;28.40;45.50;;;;;;5091684;28;20531;-67
2022/04/28 12:19:55;;;;;;;4.13;3.00;;;27.50;47.50;;;;;;5091283;28;20422;-68
2022/04/28 12:22:30;;;;;;;4.60;3.33;;;28.10;49.30;;;;;;5089325;28;20450;-68
2022/04/28 12:25:06;;;;;;;3.83;3.27;;;28.80;52.90;;;;;;5090746;28;20489;-67
2022/04/28 12:27:45;;;;;;;4.20;3.07;;;28.40;48.10;;;;;;5092535;28;20502;-67
2022/04/28 12:30:15;;;;;;;6.47;3.00;;;28.40;47.50;;;;;;5091441;28;20804;-67
2022/04/28 12:32:45;;;;;;;3.30;2.83;;;28.00;42.80;;;;;;5092307;28;20445;-66
2022/04/28 12:35:21;;;;;;;2.90;2.60;;;27.50;46.20;;;;;;5092306;28;20573;-67
2022/04/28 12:37:55;;;;;;;5.37;2.70;;;28.40;49.80;;;;;;5092378;28;20533;-67
2022/04/28 12:40:22;;;;;;;4.77;3.10;;;28.40;47.30;;;;;;5092552;28;20450;-66
2022/04/28 12:42:50;;;;;;;4.93;3.00;;;28.60;48.40;;;;;;5092308;28;20454;-66
2022/04/28 12:45:40;;;;;;;4.13;3.07;;;28.90;48.40;;;;;;5091915;28;20466;-67
2022/04/28 12:48:08;;;;;;;3.37;2.67;;;29.30;46.60;;;;;;5091945;28;20438;-67
2022/04/28 12:50:35;;;;;;;4.07;2.73;;;29.20;47.10;;;;;;5092167;28;20549;-66
2022/04/28 12:53:03;;;;;;;4.10;2.73;;;29.80;45.20;;;;;;5092086;28;20445;-66
2022/04/28 12:55:36;;;;;;;3.13;2.67;;;29.80;44.10;;;;;;5090286;28;20457;-67
2022/04/28 12:58:03;;;;;;;4.53;2.80;;;29.90;46.30;;;;;;5090841;28;20538;-67
2022/04/28 13:00:38;;;;;;;3.40;2.80;;;30.30;47.40;;;;;;5090677;28;20441;-67
2022/04/28 13:03:08;;;;;;;3.87;2.80;;;30.50;45.40;;;;;;5089786;28;20448;-67
2022/04/28 13:05:34;;;;;;;4.20;2.63;;;30.20;42.90;;;;;;5090414;28;20477;-67
2022/04/28 13:08:02;;;;;;;3.20;2.80;;;30.40;48.10;;;;;;5089711;28;20453;-65
2022/04/28 13:10:29;;;;;;;3.10;2.80;;;30.60;43.70;;;;;;5087719;28;20450;-66
2022/04/28 13:12:56;;;;;;;3.00;2.70;;;30.50;41.90;;;;;;5089509;28;20442;-68
2022/04/28 13:15:23;;;;;;;4.10;3.10;;;29.30;40.70;;;;;;5087675;28;20512;-68
2022/04/28 13:17:51;;;;;;;3.47;3.10;;;29.30;44.60;;;;;;5088737;28;20443;-67
2022/04/28 13:20:18;;;;;;;4.17;3.07;;;29.90;45.70;;;;;;5088419;28;20537;-68
2022/04/28 13:22:46;;;;;;;3.47;3.03;;;29.30;43.30;;;;;;5088099;28;20503;-68
2022/04/28 13:25:13;;;;;;;5.10;2.83;;;29.50;44.40;;;;;;5087295;28;20560;-68